<?xml version="1.0" encoding="UTF-8" standalone="no" ?>
<gpx xmlns="http://www.topografix.com/GPX/1/1" xmlns:xsi="http://www.w3.org/2001/XMLSchema-instance" xsi:schemaLocation="http://www.topografix.com/GPX/1/1 http://www.topografix.com/GPX/1/1/gpx.xsd" version="1.1" creator="VisuGPX - https://www.visugpx.com">
  <metadata>
    <name>parcours 11</name>
    <desc><![CDATA[Encore et encore]]></desc>
  </metadata>
  <trk>
    <name><![CDATA[ACTIVE LOG165906]]></name>
    <trkseg>
      <trkpt lat="48.37911" lon="-4.63553">
        <ele>43.017</ele>
        <time>2010-07-26T14:59:06Z</time>
      </trkpt>
      <trkpt lat="48.37919" lon="-4.63554">
        <ele>43.035</ele>
        <time>2010-07-26T14:59:07Z</time>
      </trkpt>
      <trkpt lat="48.37896" lon="-4.63636">
        <ele>42.938</ele>
        <time>2010-07-26T14:59:14Z</time>
      </trkpt>
      <trkpt lat="48.37856" lon="-4.63731">
        <ele>43.868</ele>
        <time>2010-07-26T14:59:26Z</time>
      </trkpt>
      <trkpt lat="48.3778" lon="-4.63893">
        <ele>45.953</ele>
        <time>2010-07-26T14:59:46Z</time>
      </trkpt>
      <trkpt lat="48.37678" lon="-4.64109">
        <ele>46.969</ele>
        <time>2010-07-26T15:00:14Z</time>
      </trkpt>
      <trkpt lat="48.37657" lon="-4.64149">
        <ele>47.705</ele>
        <time>2010-07-26T15:00:20Z</time>
      </trkpt>
      <trkpt lat="48.37636" lon="-4.64176">
        <ele>48.519</ele>
        <time>2010-07-26T15:00:25Z</time>
      </trkpt>
      <trkpt lat="48.37584" lon="-4.64229">
        <ele>49.271</ele>
        <time>2010-07-26T15:00:37Z</time>
      </trkpt>
      <trkpt lat="48.37539" lon="-4.64309">
        <ele>49.921</ele>
        <time>2010-07-26T15:00:49Z</time>
      </trkpt>
      <trkpt lat="48.37517" lon="-4.64325">
        <ele>50.258</ele>
        <time>2010-07-26T15:00:54Z</time>
      </trkpt>
      <trkpt lat="48.37488" lon="-4.64338">
        <ele>51.64</ele>
        <time>2010-07-26T15:01:00Z</time>
      </trkpt>
      <trkpt lat="48.37483" lon="-4.6434">
        <ele>51.698</ele>
        <time>2010-07-26T15:01:01Z</time>
      </trkpt>
      <trkpt lat="48.37465" lon="-4.64374">
        <ele>51.331</ele>
        <time>2010-07-26T15:01:07Z</time>
      </trkpt>
      <trkpt lat="48.37469" lon="-4.64417">
        <ele>54.209</ele>
        <time>2010-07-26T15:01:14Z</time>
      </trkpt>
      <trkpt lat="48.37456" lon="-4.64493">
        <ele>56.521</ele>
        <time>2010-07-26T15:01:27Z</time>
      </trkpt>
      <trkpt lat="48.37455" lon="-4.64496">
        <ele>56.554</ele>
        <time>2010-07-26T15:01:28Z</time>
      </trkpt>
      <trkpt lat="48.37453" lon="-4.64502">
        <ele>56.508</ele>
        <time>2010-07-26T15:01:30Z</time>
      </trkpt>
      <trkpt lat="48.37437" lon="-4.64494">
        <ele>56.51</ele>
        <time>2010-07-26T15:01:36Z</time>
      </trkpt>
      <trkpt lat="48.37383" lon="-4.6446">
        <ele>54.752</ele>
        <time>2010-07-26T15:01:46Z</time>
      </trkpt>
      <trkpt lat="48.37344" lon="-4.6442">
        <ele>51.488</ele>
        <time>2010-07-26T15:01:52Z</time>
      </trkpt>
      <trkpt lat="48.37332" lon="-4.64408">
        <ele>50.602</ele>
        <time>2010-07-26T15:01:54Z</time>
      </trkpt>
      <trkpt lat="48.37308" lon="-4.644">
        <ele>49.696</ele>
        <time>2010-07-26T15:01:56Z</time>
      </trkpt>
      <trkpt lat="48.37224" lon="-4.6438">
        <ele>53.075</ele>
        <time>2010-07-26T15:02:07Z</time>
      </trkpt>
      <trkpt lat="48.37174" lon="-4.64362">
        <ele>55.005</ele>
        <time>2010-07-26T15:02:15Z</time>
      </trkpt>
      <trkpt lat="48.37134" lon="-4.64344">
        <ele>56.254</ele>
        <time>2010-07-26T15:02:24Z</time>
      </trkpt>
      <trkpt lat="48.37033" lon="-4.64305">
        <ele>56.889</ele>
        <time>2010-07-26T15:02:40Z</time>
      </trkpt>
      <trkpt lat="48.36915" lon="-4.64287">
        <ele>59.316</ele>
        <time>2010-07-26T15:03:00Z</time>
      </trkpt>
      <trkpt lat="48.36872" lon="-4.64287">
        <ele>62.63</ele>
        <time>2010-07-26T15:03:09Z</time>
      </trkpt>
      <trkpt lat="48.36812" lon="-4.64277">
        <ele>65.656</ele>
        <time>2010-07-26T15:03:22Z</time>
      </trkpt>
      <trkpt lat="48.36698" lon="-4.64239">
        <ele>66.789</ele>
        <time>2010-07-26T15:03:43Z</time>
      </trkpt>
      <trkpt lat="48.36649" lon="-4.64222">
        <ele>65.274</ele>
        <time>2010-07-26T15:03:50Z</time>
      </trkpt>
      <trkpt lat="48.365" lon="-4.64149">
        <ele>62.513</ele>
        <time>2010-07-26T15:04:10Z</time>
      </trkpt>
      <trkpt lat="48.36413" lon="-4.64135">
        <ele>64.336</ele>
        <time>2010-07-26T15:04:21Z</time>
      </trkpt>
      <trkpt lat="48.36257" lon="-4.64121">
        <ele>67.383</ele>
        <time>2010-07-26T15:04:43Z</time>
      </trkpt>
      <trkpt lat="48.36106" lon="-4.64156">
        <ele>68.908</ele>
        <time>2010-07-26T15:05:06Z</time>
      </trkpt>
      <trkpt lat="48.36044" lon="-4.64219">
        <ele>67.07</ele>
        <time>2010-07-26T15:05:17Z</time>
      </trkpt>
      <trkpt lat="48.36034" lon="-4.64233">
        <ele>67.481</ele>
        <time>2010-07-26T15:05:19Z</time>
      </trkpt>
      <trkpt lat="48.36001" lon="-4.64263">
        <ele>68.417</ele>
        <time>2010-07-26T15:05:25Z</time>
      </trkpt>
      <trkpt lat="48.35942" lon="-4.6429">
        <ele>69.139</ele>
        <time>2010-07-26T15:05:34Z</time>
      </trkpt>
      <trkpt lat="48.35916" lon="-4.64298">
        <ele>70.079</ele>
        <time>2010-07-26T15:05:38Z</time>
      </trkpt>
      <trkpt lat="48.35877" lon="-4.64328">
        <ele>71.329</ele>
        <time>2010-07-26T15:05:45Z</time>
      </trkpt>
      <trkpt lat="48.35884" lon="-4.64287">
        <ele>69.591</ele>
        <time>2010-07-26T15:05:50Z</time>
      </trkpt>
      <trkpt lat="48.35894" lon="-4.64284">
        <ele>66.961</ele>
        <time>2010-07-26T15:05:52Z</time>
      </trkpt>
      <trkpt lat="48.35909" lon="-4.64236">
        <ele>69.623</ele>
        <time>2010-07-26T15:05:56Z</time>
      </trkpt>
      <trkpt lat="48.35912" lon="-4.64217">
        <ele>70.591</ele>
        <time>2010-07-26T15:05:58Z</time>
      </trkpt>
      <trkpt lat="48.35914" lon="-4.64085">
        <ele>71.64</ele>
        <time>2010-07-26T15:06:11Z</time>
      </trkpt>
      <trkpt lat="48.35882" lon="-4.63848">
        <ele>70.083</ele>
        <time>2010-07-26T15:06:32Z</time>
      </trkpt>
      <trkpt lat="48.35877" lon="-4.63573">
        <ele>70.712</ele>
        <time>2010-07-26T15:06:55Z</time>
      </trkpt>
      <trkpt lat="48.35877" lon="-4.63364">
        <ele>73.745</ele>
        <time>2010-07-26T15:07:15Z</time>
      </trkpt>
      <trkpt lat="48.35875" lon="-4.63052">
        <ele>76.066</ele>
        <time>2010-07-26T15:07:47Z</time>
      </trkpt>
      <trkpt lat="48.35887" lon="-4.62778">
        <ele>78.094</ele>
        <time>2010-07-26T15:08:14Z</time>
      </trkpt>
      <trkpt lat="48.3591" lon="-4.62526">
        <ele>79.354</ele>
        <time>2010-07-26T15:08:40Z</time>
      </trkpt>
      <trkpt lat="48.35966" lon="-4.62304">
        <ele>80.787</ele>
        <time>2010-07-26T15:09:05Z</time>
      </trkpt>
      <trkpt lat="48.35973" lon="-4.62289">
        <ele>81.857</ele>
        <time>2010-07-26T15:09:07Z</time>
      </trkpt>
      <trkpt lat="48.36022" lon="-4.6219">
        <ele>82.997</ele>
        <time>2010-07-26T15:09:22Z</time>
      </trkpt>
      <trkpt lat="48.36105" lon="-4.62079">
        <ele>84.699</ele>
        <time>2010-07-26T15:09:41Z</time>
      </trkpt>
      <trkpt lat="48.36141" lon="-4.62021">
        <ele>85.016</ele>
        <time>2010-07-26T15:09:50Z</time>
      </trkpt>
      <trkpt lat="48.36187" lon="-4.61873">
        <ele>85.517</ele>
        <time>2010-07-26T15:10:08Z</time>
      </trkpt>
      <trkpt lat="48.36185" lon="-4.61712">
        <ele>87.044</ele>
        <time>2010-07-26T15:10:25Z</time>
      </trkpt>
      <trkpt lat="48.36171" lon="-4.61506">
        <ele>86.398</ele>
        <time>2010-07-26T15:10:45Z</time>
      </trkpt>
      <trkpt lat="48.36163" lon="-4.61241">
        <ele>85.495</ele>
        <time>2010-07-26T15:11:09Z</time>
      </trkpt>
      <trkpt lat="48.36174" lon="-4.61063">
        <ele>84.078</ele>
        <time>2010-07-26T15:11:24Z</time>
      </trkpt>
      <trkpt lat="48.36186" lon="-4.60876">
        <ele>83.551</ele>
        <time>2010-07-26T15:11:40Z</time>
      </trkpt>
      <trkpt lat="48.36199" lon="-4.60666">
        <ele>82.334</ele>
        <time>2010-07-26T15:11:58Z</time>
      </trkpt>
      <trkpt lat="48.36234" lon="-4.60377">
        <ele>81.488</ele>
        <time>2010-07-26T15:12:22Z</time>
      </trkpt>
      <trkpt lat="48.36271" lon="-4.60099">
        <ele>81.571</ele>
        <time>2010-07-26T15:12:45Z</time>
      </trkpt>
      <trkpt lat="48.36276" lon="-4.60061">
        <ele>82.122</ele>
        <time>2010-07-26T15:12:49Z</time>
      </trkpt>
      <trkpt lat="48.36285" lon="-4.60018">
        <ele>80.706</ele>
        <time>2010-07-26T15:12:55Z</time>
      </trkpt>
      <trkpt lat="48.36308" lon="-4.60048">
        <ele>79.302</ele>
        <time>2010-07-26T15:12:57Z</time>
      </trkpt>
      <trkpt lat="48.36361" lon="-4.60033">
        <ele>81.503</ele>
        <time>2010-07-26T15:13:05Z</time>
      </trkpt>
      <trkpt lat="48.36368" lon="-4.60015">
        <ele>81.07</ele>
        <time>2010-07-26T15:13:07Z</time>
      </trkpt>
      <trkpt lat="48.36409" lon="-4.59923">
        <ele>80.842</ele>
        <time>2010-07-26T15:13:18Z</time>
      </trkpt>
      <trkpt lat="48.36472" lon="-4.5977">
        <ele>84.123</ele>
        <time>2010-07-26T15:13:37Z</time>
      </trkpt>
      <trkpt lat="48.36528" lon="-4.59618">
        <ele>87.026</ele>
        <time>2010-07-26T15:13:57Z</time>
      </trkpt>
      <trkpt lat="48.36573" lon="-4.59467">
        <ele>87.867</ele>
        <time>2010-07-26T15:14:16Z</time>
      </trkpt>
      <trkpt lat="48.36616" lon="-4.59328">
        <ele>88.69</ele>
        <time>2010-07-26T15:14:33Z</time>
      </trkpt>
      <trkpt lat="48.36664" lon="-4.59188">
        <ele>89.389</ele>
        <time>2010-07-26T15:14:51Z</time>
      </trkpt>
      <trkpt lat="48.36688" lon="-4.59191">
        <ele>86.141</ele>
        <time>2010-07-26T15:14:57Z</time>
      </trkpt>
      <trkpt lat="48.36691" lon="-4.59199">
        <ele>86.569</ele>
        <time>2010-07-26T15:14:58Z</time>
      </trkpt>
      <trkpt lat="48.3674" lon="-4.59353">
        <ele>86.113</ele>
        <time>2010-07-26T15:15:14Z</time>
      </trkpt>
      <trkpt lat="48.36758" lon="-4.59413">
        <ele>84.549</ele>
        <time>2010-07-26T15:15:20Z</time>
      </trkpt>
      <trkpt lat="48.36818" lon="-4.59511">
        <ele>83.218</ele>
        <time>2010-07-26T15:15:32Z</time>
      </trkpt>
      <trkpt lat="48.36901" lon="-4.59554">
        <ele>83.495</ele>
        <time>2010-07-26T15:15:44Z</time>
      </trkpt>
      <trkpt lat="48.37015" lon="-4.59625">
        <ele>82.957</ele>
        <time>2010-07-26T15:16:02Z</time>
      </trkpt>
      <trkpt lat="48.37114" lon="-4.59714">
        <ele>84.197</ele>
        <time>2010-07-26T15:16:21Z</time>
      </trkpt>
      <trkpt lat="48.37139" lon="-4.59737">
        <ele>83.018</ele>
        <time>2010-07-26T15:16:26Z</time>
      </trkpt>
      <trkpt lat="48.37157" lon="-4.59727">
        <ele>85.707</ele>
        <time>2010-07-26T15:16:31Z</time>
      </trkpt>
      <trkpt lat="48.3716" lon="-4.59702">
        <ele>85.693</ele>
        <time>2010-07-26T15:16:34Z</time>
      </trkpt>
      <trkpt lat="48.37152" lon="-4.59537">
        <ele>86.601</ele>
        <time>2010-07-26T15:16:51Z</time>
      </trkpt>
      <trkpt lat="48.37149" lon="-4.5945">
        <ele>87.653</ele>
        <time>2010-07-26T15:17:00Z</time>
      </trkpt>
      <trkpt lat="48.37167" lon="-4.593">
        <ele>87.819</ele>
        <time>2010-07-26T15:17:16Z</time>
      </trkpt>
      <trkpt lat="48.37181" lon="-4.59226">
        <ele>89.001</ele>
        <time>2010-07-26T15:17:25Z</time>
      </trkpt>
      <trkpt lat="48.37195" lon="-4.59171">
        <ele>89.616</ele>
        <time>2010-07-26T15:17:33Z</time>
      </trkpt>
      <trkpt lat="48.37199" lon="-4.5916">
        <ele>89.891</ele>
        <time>2010-07-26T15:17:37Z</time>
      </trkpt>
      <trkpt lat="48.37216" lon="-4.5911">
        <ele>88.932</ele>
        <time>2010-07-26T15:17:42Z</time>
      </trkpt>
      <trkpt lat="48.3722" lon="-4.59079">
        <ele>89.319</ele>
        <time>2010-07-26T15:17:47Z</time>
      </trkpt>
      <trkpt lat="48.37197" lon="-4.59048">
        <ele>89.146</ele>
        <time>2010-07-26T15:17:52Z</time>
      </trkpt>
      <trkpt lat="48.3719" lon="-4.59014">
        <ele>89.93</ele>
        <time>2010-07-26T15:17:56Z</time>
      </trkpt>
      <trkpt lat="48.37221" lon="-4.58929">
        <ele>88.615</ele>
        <time>2010-07-26T15:18:05Z</time>
      </trkpt>
      <trkpt lat="48.37218" lon="-4.58905">
        <ele>89.851</ele>
        <time>2010-07-26T15:18:08Z</time>
      </trkpt>
      <trkpt lat="48.37207" lon="-4.58897">
        <ele>89.148</ele>
        <time>2010-07-26T15:18:10Z</time>
      </trkpt>
      <trkpt lat="48.37236" lon="-4.58888">
        <ele>87.987</ele>
        <time>2010-07-26T15:18:15Z</time>
      </trkpt>
      <trkpt lat="48.37247" lon="-4.58858">
        <ele>88.242</ele>
        <time>2010-07-26T15:18:20Z</time>
      </trkpt>
      <trkpt lat="48.37227" lon="-4.58726">
        <ele>87.219</ele>
        <time>2010-07-26T15:18:27Z</time>
      </trkpt>
      <trkpt lat="48.37202" lon="-4.58709">
        <ele>86.973</ele>
        <time>2010-07-26T15:18:31Z</time>
      </trkpt>
      <trkpt lat="48.37175" lon="-4.58691">
        <ele>86.675</ele>
        <time>2010-07-26T15:18:35Z</time>
      </trkpt>
      <trkpt lat="48.37171" lon="-4.58644">
        <ele>83.765</ele>
        <time>2010-07-26T15:18:41Z</time>
      </trkpt>
      <trkpt lat="48.37197" lon="-4.58609">
        <ele>83.683</ele>
        <time>2010-07-26T15:18:46Z</time>
      </trkpt>
      <trkpt lat="48.37211" lon="-4.58586">
        <ele>83.372</ele>
        <time>2010-07-26T15:18:49Z</time>
      </trkpt>
      <trkpt lat="48.37226" lon="-4.58572">
        <ele>85.223</ele>
        <time>2010-07-26T15:18:52Z</time>
      </trkpt>
      <trkpt lat="48.37238" lon="-4.58558">
        <ele>85.179</ele>
        <time>2010-07-26T15:18:55Z</time>
      </trkpt>
      <trkpt lat="48.37259" lon="-4.58556">
        <ele>85.23</ele>
        <time>2010-07-26T15:18:59Z</time>
      </trkpt>
      <trkpt lat="48.37349" lon="-4.58529">
        <ele>86.496</ele>
        <time>2010-07-26T15:19:13Z</time>
      </trkpt>
      <trkpt lat="48.37371" lon="-4.58535">
        <ele>87.248</ele>
        <time>2010-07-26T15:19:19Z</time>
      </trkpt>
      <trkpt lat="48.37373" lon="-4.58605">
        <ele>90.109</ele>
        <time>2010-07-26T15:19:22Z</time>
      </trkpt>
      <trkpt lat="48.37374" lon="-4.58588">
        <ele>90.16</ele>
        <time>2010-07-26T15:19:25Z</time>
      </trkpt>
      <trkpt lat="48.37387" lon="-4.58426">
        <ele>87.27</ele>
        <time>2010-07-26T15:19:43Z</time>
      </trkpt>
      <trkpt lat="48.37411" lon="-4.58268">
        <ele>87.039</ele>
        <time>2010-07-26T15:19:59Z</time>
      </trkpt>
      <trkpt lat="48.37436" lon="-4.58118">
        <ele>88.371</ele>
        <time>2010-07-26T15:20:14Z</time>
      </trkpt>
      <trkpt lat="48.37438" lon="-4.58098">
        <ele>88.613</ele>
        <time>2010-07-26T15:20:16Z</time>
      </trkpt>
      <trkpt lat="48.37443" lon="-4.58024">
        <ele>89.872</ele>
        <time>2010-07-26T15:20:26Z</time>
      </trkpt>
      <trkpt lat="48.37443" lon="-4.58014">
        <ele>88.656</ele>
        <time>2010-07-26T15:20:32Z</time>
      </trkpt>
      <trkpt lat="48.37443" lon="-4.58014">
        <ele>88.772</ele>
        <time>2010-07-26T15:20:34Z</time>
      </trkpt>
      <trkpt lat="48.37455" lon="-4.57896">
        <ele>89.144</ele>
        <time>2010-07-26T15:20:46Z</time>
      </trkpt>
      <trkpt lat="48.37501" lon="-4.57729">
        <ele>89.837</ele>
        <time>2010-07-26T15:21:03Z</time>
      </trkpt>
      <trkpt lat="48.37562" lon="-4.57504">
        <ele>89.972</ele>
        <time>2010-07-26T15:21:26Z</time>
      </trkpt>
      <trkpt lat="48.37547" lon="-4.57454">
        <ele>89.743</ele>
        <time>2010-07-26T15:21:32Z</time>
      </trkpt>
      <trkpt lat="48.37467" lon="-4.5741">
        <ele>86.311</ele>
        <time>2010-07-26T15:21:43Z</time>
      </trkpt>
      <trkpt lat="48.37429" lon="-4.57389">
        <ele>83.154</ele>
        <time>2010-07-26T15:21:48Z</time>
      </trkpt>
      <trkpt lat="48.37409" lon="-4.57377">
        <ele>81.843</ele>
        <time>2010-07-26T15:21:51Z</time>
      </trkpt>
      <trkpt lat="48.37391" lon="-4.57368">
        <ele>79.968</ele>
        <time>2010-07-26T15:21:55Z</time>
      </trkpt>
      <trkpt lat="48.37386" lon="-4.57365">
        <ele>79.574</ele>
        <time>2010-07-26T15:21:56Z</time>
      </trkpt>
      <trkpt lat="48.37387" lon="-4.5724">
        <ele>76.174</ele>
        <time>2010-07-26T15:22:05Z</time>
      </trkpt>
      <trkpt lat="48.37391" lon="-4.57181">
        <ele>78.144</ele>
        <time>2010-07-26T15:22:10Z</time>
      </trkpt>
      <trkpt lat="48.37398" lon="-4.57083">
        <ele>81.274</ele>
        <time>2010-07-26T15:22:18Z</time>
      </trkpt>
      <trkpt lat="48.37399" lon="-4.57059">
        <ele>82.128</ele>
        <time>2010-07-26T15:22:20Z</time>
      </trkpt>
      <trkpt lat="48.374" lon="-4.56887">
        <ele>82.846</ele>
        <time>2010-07-26T15:22:37Z</time>
      </trkpt>
      <trkpt lat="48.374" lon="-4.56878">
        <ele>82.762</ele>
        <time>2010-07-26T15:22:38Z</time>
      </trkpt>
      <trkpt lat="48.37403" lon="-4.56827">
        <ele>84.149</ele>
        <time>2010-07-26T15:22:47Z</time>
      </trkpt>
      <trkpt lat="48.37403" lon="-4.56821">
        <ele>84.075</ele>
        <time>2010-07-26T15:22:48Z</time>
      </trkpt>
      <trkpt lat="48.37416" lon="-4.567">
        <ele>83.221</ele>
        <time>2010-07-26T15:23:01Z</time>
      </trkpt>
      <trkpt lat="48.37439" lon="-4.56594">
        <ele>83.983</ele>
        <time>2010-07-26T15:23:13Z</time>
      </trkpt>
      <trkpt lat="48.37447" lon="-4.56556">
        <ele>85.581</ele>
        <time>2010-07-26T15:23:17Z</time>
      </trkpt>
      <trkpt lat="48.37457" lon="-4.56484">
        <ele>85.994</ele>
        <time>2010-07-26T15:23:26Z</time>
      </trkpt>
      <trkpt lat="48.37486" lon="-4.56455">
        <ele>85.351</ele>
        <time>2010-07-26T15:23:34Z</time>
      </trkpt>
      <trkpt lat="48.37517" lon="-4.56463">
        <ele>86.368</ele>
        <time>2010-07-26T15:23:40Z</time>
      </trkpt>
      <trkpt lat="48.37553" lon="-4.56444">
        <ele>86.365</ele>
        <time>2010-07-26T15:23:46Z</time>
      </trkpt>
      <trkpt lat="48.37602" lon="-4.56315">
        <ele>83.768</ele>
        <time>2010-07-26T15:24:00Z</time>
      </trkpt>
      <trkpt lat="48.37642" lon="-4.56177">
        <ele>81.948</ele>
        <time>2010-07-26T15:24:14Z</time>
      </trkpt>
      <trkpt lat="48.37657" lon="-4.56111">
        <ele>79.403</ele>
        <time>2010-07-26T15:24:19Z</time>
      </trkpt>
      <trkpt lat="48.37679" lon="-4.56023">
        <ele>77.144</ele>
        <time>2010-07-26T15:24:27Z</time>
      </trkpt>
      <trkpt lat="48.37687" lon="-4.5597">
        <ele>77.851</ele>
        <time>2010-07-26T15:24:31Z</time>
      </trkpt>
      <trkpt lat="48.37697" lon="-4.5586">
        <ele>82.029</ele>
        <time>2010-07-26T15:24:43Z</time>
      </trkpt>
      <trkpt lat="48.3769" lon="-4.55817">
        <ele>83.735</ele>
        <time>2010-07-26T15:24:48Z</time>
      </trkpt>
      <trkpt lat="48.37687" lon="-4.55798">
        <ele>84.018</ele>
        <time>2010-07-26T15:24:50Z</time>
      </trkpt>
      <trkpt lat="48.37679" lon="-4.55748">
        <ele>83.457</ele>
        <time>2010-07-26T15:24:55Z</time>
      </trkpt>
      <trkpt lat="48.3771" lon="-4.55688">
        <ele>81.979</ele>
        <time>2010-07-26T15:25:04Z</time>
      </trkpt>
      <trkpt lat="48.37714" lon="-4.55685">
        <ele>82.201</ele>
        <time>2010-07-26T15:25:05Z</time>
      </trkpt>
      <trkpt lat="48.37733" lon="-4.55673">
        <ele>83.222</ele>
        <time>2010-07-26T15:25:09Z</time>
      </trkpt>
      <trkpt lat="48.37741" lon="-4.55641">
        <ele>83.295</ele>
        <time>2010-07-26T15:25:15Z</time>
      </trkpt>
      <trkpt lat="48.37768" lon="-4.55497">
        <ele>81.655</ele>
        <time>2010-07-26T15:25:29Z</time>
      </trkpt>
      <trkpt lat="48.37785" lon="-4.55448">
        <ele>81.433</ele>
        <time>2010-07-26T15:25:34Z</time>
      </trkpt>
      <trkpt lat="48.37798" lon="-4.5542">
        <ele>80.033</ele>
        <time>2010-07-26T15:25:37Z</time>
      </trkpt>
      <trkpt lat="48.37843" lon="-4.55276">
        <ele>79.983</ele>
        <time>2010-07-26T15:25:52Z</time>
      </trkpt>
      <trkpt lat="48.37889" lon="-4.5517">
        <ele>78.106</ele>
        <time>2010-07-26T15:26:04Z</time>
      </trkpt>
      <trkpt lat="48.37919" lon="-4.55115">
        <ele>76.589</ele>
        <time>2010-07-26T15:26:10Z</time>
      </trkpt>
      <trkpt lat="48.37988" lon="-4.54989">
        <ele>74.807</ele>
        <time>2010-07-26T15:26:26Z</time>
      </trkpt>
      <trkpt lat="48.38043" lon="-4.54863">
        <ele>76.371</ele>
        <time>2010-07-26T15:26:39Z</time>
      </trkpt>
      <trkpt lat="48.3806" lon="-4.54829">
        <ele>77.158</ele>
        <time>2010-07-26T15:26:44Z</time>
      </trkpt>
      <trkpt lat="48.38071" lon="-4.54805">
        <ele>78.745</ele>
        <time>2010-07-26T15:26:47Z</time>
      </trkpt>
      <trkpt lat="48.38057" lon="-4.54772">
        <ele>80.435</ele>
        <time>2010-07-26T15:26:54Z</time>
      </trkpt>
      <trkpt lat="48.38002" lon="-4.54728">
        <ele>82.233</ele>
        <time>2010-07-26T15:27:05Z</time>
      </trkpt>
      <trkpt lat="48.37964" lon="-4.54703">
        <ele>83.812</ele>
        <time>2010-07-26T15:27:13Z</time>
      </trkpt>
      <trkpt lat="48.37904" lon="-4.54632">
        <ele>85.628</ele>
        <time>2010-07-26T15:27:27Z</time>
      </trkpt>
      <trkpt lat="48.37886" lon="-4.54607">
        <ele>85.949</ele>
        <time>2010-07-26T15:27:32Z</time>
      </trkpt>
      <trkpt lat="48.37862" lon="-4.54593">
        <ele>86.021</ele>
        <time>2010-07-26T15:27:37Z</time>
      </trkpt>
      <trkpt lat="48.37849" lon="-4.54585">
        <ele>85.981</ele>
        <time>2010-07-26T15:27:40Z</time>
      </trkpt>
      <trkpt lat="48.37834" lon="-4.54552">
        <ele>84.944</ele>
        <time>2010-07-26T15:27:46Z</time>
      </trkpt>
      <trkpt lat="48.37802" lon="-4.54535">
        <ele>84.745</ele>
        <time>2010-07-26T15:27:51Z</time>
      </trkpt>
      <trkpt lat="48.37797" lon="-4.54455">
        <ele>85.996</ele>
        <time>2010-07-26T15:27:58Z</time>
      </trkpt>
      <trkpt lat="48.37826" lon="-4.54444">
        <ele>84.655</ele>
        <time>2010-07-26T15:28:02Z</time>
      </trkpt>
      <trkpt lat="48.37857" lon="-4.54414">
        <ele>86.818</ele>
        <time>2010-07-26T15:28:07Z</time>
      </trkpt>
      <trkpt lat="48.37875" lon="-4.54395">
        <ele>87.992</ele>
        <time>2010-07-26T15:28:11Z</time>
      </trkpt>
      <trkpt lat="48.37903" lon="-4.54375">
        <ele>90.155</ele>
        <time>2010-07-26T15:28:24Z</time>
      </trkpt>
      <trkpt lat="48.37927" lon="-4.54345">
        <ele>89.438</ele>
        <time>2010-07-26T15:28:40Z</time>
      </trkpt>
      <trkpt lat="48.37948" lon="-4.54318">
        <ele>88.348</ele>
        <time>2010-07-26T15:28:45Z</time>
      </trkpt>
      <trkpt lat="48.38068" lon="-4.54166">
        <ele>90.084</ele>
        <time>2010-07-26T15:29:09Z</time>
      </trkpt>
      <trkpt lat="48.38199" lon="-4.54002">
        <ele>91.441</ele>
        <time>2010-07-26T15:29:35Z</time>
      </trkpt>
      <trkpt lat="48.38209" lon="-4.53987">
        <ele>92.247</ele>
        <time>2010-07-26T15:29:37Z</time>
      </trkpt>
      <trkpt lat="48.38272" lon="-4.5389">
        <ele>92.289</ele>
        <time>2010-07-26T15:29:54Z</time>
      </trkpt>
      <trkpt lat="48.38272" lon="-4.5389">
        <ele>92.166</ele>
        <time>2010-07-26T15:29:55Z</time>
      </trkpt>
      <trkpt lat="48.38293" lon="-4.53823">
        <ele>93.33</ele>
        <time>2010-07-26T15:30:01Z</time>
      </trkpt>
      <trkpt lat="48.38293" lon="-4.53787">
        <ele>92.592</ele>
        <time>2010-07-26T15:30:06Z</time>
      </trkpt>
      <trkpt lat="48.38305" lon="-4.53689">
        <ele>93.765</ele>
        <time>2010-07-26T15:30:23Z</time>
      </trkpt>
      <trkpt lat="48.38313" lon="-4.53641">
        <ele>92.469</ele>
        <time>2010-07-26T15:30:29Z</time>
      </trkpt>
      <trkpt lat="48.38318" lon="-4.53606">
        <ele>93.097</ele>
        <time>2010-07-26T15:30:33Z</time>
      </trkpt>
      <trkpt lat="48.38323" lon="-4.53441">
        <ele>92.125</ele>
        <time>2010-07-26T15:30:48Z</time>
      </trkpt>
      <trkpt lat="48.38323" lon="-4.53226">
        <ele>93.51</ele>
        <time>2010-07-26T15:31:07Z</time>
      </trkpt>
      <trkpt lat="48.38323" lon="-4.53157">
        <ele>93.594</ele>
        <time>2010-07-26T15:31:14Z</time>
      </trkpt>
      <trkpt lat="48.38323" lon="-4.53139">
        <ele>92.959</ele>
        <time>2010-07-26T15:31:18Z</time>
      </trkpt>
      <trkpt lat="48.38302" lon="-4.53113">
        <ele>93.821</ele>
        <time>2010-07-26T15:31:20Z</time>
      </trkpt>
      <trkpt lat="48.38302" lon="-4.53031">
        <ele>95.023</ele>
        <time>2010-07-26T15:31:29Z</time>
      </trkpt>
      <trkpt lat="48.38306" lon="-4.52899">
        <ele>95.128</ele>
        <time>2010-07-26T15:31:42Z</time>
      </trkpt>
      <trkpt lat="48.38306" lon="-4.52871">
        <ele>96.774</ele>
        <time>2010-07-26T15:31:45Z</time>
      </trkpt>
      <trkpt lat="48.38307" lon="-4.52823">
        <ele>95.128</ele>
        <time>2010-07-26T15:31:50Z</time>
      </trkpt>
      <trkpt lat="48.3831" lon="-4.52772">
        <ele>95.761</ele>
        <time>2010-07-26T15:31:58Z</time>
      </trkpt>
      <trkpt lat="48.38312" lon="-4.52743">
        <ele>94.325</ele>
        <time>2010-07-26T15:32:02Z</time>
      </trkpt>
      <trkpt lat="48.38321" lon="-4.52636">
        <ele>90.774</ele>
        <time>2010-07-26T15:32:12Z</time>
      </trkpt>
      <trkpt lat="48.38332" lon="-4.52526">
        <ele>88.748</ele>
        <time>2010-07-26T15:32:22Z</time>
      </trkpt>
      <trkpt lat="48.38351" lon="-4.5243">
        <ele>85.853</ele>
        <time>2010-07-26T15:32:30Z</time>
      </trkpt>
      <trkpt lat="48.38358" lon="-4.52398">
        <ele>85.485</ele>
        <time>2010-07-26T15:32:33Z</time>
      </trkpt>
      <trkpt lat="48.38345" lon="-4.52373">
        <ele>85.243</ele>
        <time>2010-07-26T15:32:37Z</time>
      </trkpt>
      <trkpt lat="48.38333" lon="-4.5234">
        <ele>85.258</ele>
        <time>2010-07-26T15:32:43Z</time>
      </trkpt>
      <trkpt lat="48.3835" lon="-4.52253">
        <ele>88.371</ele>
        <time>2010-07-26T15:32:55Z</time>
      </trkpt>
      <trkpt lat="48.38358" lon="-4.52215">
        <ele>89.512</ele>
        <time>2010-07-26T15:33:00Z</time>
      </trkpt>
      <trkpt lat="48.38381" lon="-4.52094">
        <ele>87.762</ele>
        <time>2010-07-26T15:33:14Z</time>
      </trkpt>
      <trkpt lat="48.38403" lon="-4.51978">
        <ele>87.326</ele>
        <time>2010-07-26T15:33:28Z</time>
      </trkpt>
      <trkpt lat="48.3839" lon="-4.51971">
        <ele>87.348</ele>
        <time>2010-07-26T15:33:33Z</time>
      </trkpt>
      <trkpt lat="48.3835" lon="-4.51981">
        <ele>84.586</ele>
        <time>2010-07-26T15:33:39Z</time>
      </trkpt>
      <trkpt lat="48.3831" lon="-4.51991">
        <ele>82.768</ele>
        <time>2010-07-26T15:33:48Z</time>
      </trkpt>
      <trkpt lat="48.3831" lon="-4.51991">
        <ele>82.786</ele>
        <time>2010-07-26T15:33:57Z</time>
      </trkpt>
      <trkpt lat="48.38304" lon="-4.51953">
        <ele>82.064</ele>
        <time>2010-07-26T15:34:02Z</time>
      </trkpt>
      <trkpt lat="48.38273" lon="-4.51929">
        <ele>80.586</ele>
        <time>2010-07-26T15:34:11Z</time>
      </trkpt>
      <trkpt lat="48.38268" lon="-4.51931">
        <ele>80.486</ele>
        <time>2010-07-26T15:34:12Z</time>
      </trkpt>
      <trkpt lat="48.38223" lon="-4.51943">
        <ele>78.727</ele>
        <time>2010-07-26T15:34:18Z</time>
      </trkpt>
      <trkpt lat="48.38205" lon="-4.51917">
        <ele>75.434</ele>
        <time>2010-07-26T15:34:22Z</time>
      </trkpt>
      <trkpt lat="48.38191" lon="-4.51856">
        <ele>71.973</ele>
        <time>2010-07-26T15:34:27Z</time>
      </trkpt>
      <trkpt lat="48.3818" lon="-4.51811">
        <ele>68.753</ele>
        <time>2010-07-26T15:34:30Z</time>
      </trkpt>
      <trkpt lat="48.38173" lon="-4.5178">
        <ele>65.463</ele>
        <time>2010-07-26T15:34:32Z</time>
      </trkpt>
      <trkpt lat="48.3817" lon="-4.51765">
        <ele>65.321</ele>
        <time>2010-07-26T15:34:33Z</time>
      </trkpt>
      <trkpt lat="48.38166" lon="-4.51749">
        <ele>65.076</ele>
        <time>2010-07-26T15:34:34Z</time>
      </trkpt>
      <trkpt lat="48.38153" lon="-4.51673">
        <ele>65.448</ele>
        <time>2010-07-26T15:34:39Z</time>
      </trkpt>
      <trkpt lat="48.38134" lon="-4.51527">
        <ele>62.109</ele>
        <time>2010-07-26T15:34:49Z</time>
      </trkpt>
      <trkpt lat="48.38134" lon="-4.51512">
        <ele>62.564</ele>
        <time>2010-07-26T15:34:50Z</time>
      </trkpt>
      <trkpt lat="48.38134" lon="-4.51354">
        <ele>57.697</ele>
        <time>2010-07-26T15:35:00Z</time>
      </trkpt>
      <trkpt lat="48.38134" lon="-4.51337">
        <ele>57.791</ele>
        <time>2010-07-26T15:35:01Z</time>
      </trkpt>
      <trkpt lat="48.38139" lon="-4.51147">
        <ele>59.195</ele>
        <time>2010-07-26T15:35:13Z</time>
      </trkpt>
      <trkpt lat="48.38138" lon="-4.51108">
        <ele>59.702</ele>
        <time>2010-07-26T15:35:16Z</time>
      </trkpt>
      <trkpt lat="48.38122" lon="-4.51002">
        <ele>60.651</ele>
        <time>2010-07-26T15:35:26Z</time>
      </trkpt>
      <trkpt lat="48.38149" lon="-4.5092">
        <ele>59.671</ele>
        <time>2010-07-26T15:35:36Z</time>
      </trkpt>
      <trkpt lat="48.38157" lon="-4.50908">
        <ele>58.826</ele>
        <time>2010-07-26T15:35:38Z</time>
      </trkpt>
      <trkpt lat="48.38206" lon="-4.50875">
        <ele>58.511</ele>
        <time>2010-07-26T15:35:49Z</time>
      </trkpt>
      <trkpt lat="48.38223" lon="-4.50868">
        <ele>59.145</ele>
        <time>2010-07-26T15:35:52Z</time>
      </trkpt>
      <trkpt lat="48.38266" lon="-4.50863">
        <ele>58.936</ele>
        <time>2010-07-26T15:36:01Z</time>
      </trkpt>
      <trkpt lat="48.38271" lon="-4.50863">
        <ele>60.314</ele>
        <time>2010-07-26T15:36:10Z</time>
      </trkpt>
      <trkpt lat="48.38284" lon="-4.50861">
        <ele>60.461</ele>
        <time>2010-07-26T15:36:20Z</time>
      </trkpt>
      <trkpt lat="48.3829" lon="-4.50831">
        <ele>58.89</ele>
        <time>2010-07-26T15:36:27Z</time>
      </trkpt>
      <trkpt lat="48.38286" lon="-4.50801">
        <ele>57.219</ele>
        <time>2010-07-26T15:36:31Z</time>
      </trkpt>
      <trkpt lat="48.38285" lon="-4.50765">
        <ele>55.014</ele>
        <time>2010-07-26T15:36:35Z</time>
      </trkpt>
      <trkpt lat="48.38283" lon="-4.50745">
        <ele>53.331</ele>
        <time>2010-07-26T15:36:37Z</time>
      </trkpt>
      <trkpt lat="48.38278" lon="-4.50702">
        <ele>37.526</ele>
        <time>2010-07-26T15:36:42Z</time>
      </trkpt>
      <trkpt lat="48.38277" lon="-4.50693">
        <ele>50.953</ele>
        <time>2010-07-26T15:36:43Z</time>
      </trkpt>
      <trkpt lat="48.38275" lon="-4.50677">
        <ele>52.876</ele>
        <time>2010-07-26T15:36:45Z</time>
      </trkpt>
      <trkpt lat="48.38273" lon="-4.50654">
        <ele>49.928</ele>
        <time>2010-07-26T15:36:49Z</time>
      </trkpt>
      <trkpt lat="48.38273" lon="-4.50654">
        <ele>48.671</ele>
        <time>2010-07-26T15:36:53Z</time>
      </trkpt>
      <trkpt lat="48.38273" lon="-4.50654">
        <ele>48.727</ele>
        <time>2010-07-26T15:36:54Z</time>
      </trkpt>
      <trkpt lat="48.38273" lon="-4.50651">
        <ele>48.836</ele>
        <time>2010-07-26T15:37:06Z</time>
      </trkpt>
      <trkpt lat="48.38273" lon="-4.50651">
        <ele>48.425</ele>
        <time>2010-07-26T15:37:10Z</time>
      </trkpt>
      <trkpt lat="48.38249" lon="-4.50572">
        <ele>49.113</ele>
        <time>2010-07-26T15:37:14Z</time>
      </trkpt>
      <trkpt lat="48.38232" lon="-4.50577">
        <ele>48.913</ele>
        <time>2010-07-26T15:37:27Z</time>
      </trkpt>
      <trkpt lat="48.38232" lon="-4.50577">
        <ele>48.913</ele>
        <time>2010-07-26T15:37:28Z</time>
      </trkpt>
      <trkpt lat="48.38232" lon="-4.50577">
        <ele>48.939</ele>
        <time>2010-07-26T15:37:46Z</time>
      </trkpt>
    </trkseg>
  </trk>
</gpx>